Sour Lake, Texas
Current Conditions -  °F | °C
As of 8:55 PM on Monday 22 Dec 2014 (Local Time) from KBMT Reporting Station
Clear Clear  
Wind Chill: 62°   Ceiling: Unl
Heat Index: 62°   Visibility: 10mi
Dew Point: 60°   Wind: 8mph
Humidity: 93%   Direction: 210°SSW
Pressure: 29.66"   Gusts: NA
Location:  30.14°N, 94.41°W
Report Text: KBMT 230255Z AUTO 21007KT 10SM CLR 17/16 A2966 RMK AO2 T01690158
Loading
Personal Weather Stations






























Interactive Weather Map New forecast layout! Learn more

10-Day Weather Forecast

Advertisements
Track Severe Weather on mobile